Chemroad Wing — 3EAB8 — position and weather

sailwx.info

Track history (hours):
 
Tides and Currents Weather Stations Pressure Air Temp Water Temp Dewpoint Dewpoint Depression Visibility Wind Speed Wind Dir Waves Ship Positions

Chemroad Wing

Last reported at 2015-Jan-26 00:33 UTC. Time now 2015-Jan-27 03:29 UTC.
Position N 29°59' E 121°46'.

Length 170 m; draft 10.9 m.

Type: Ship (hazmat cat B). MMSI: 357740000.

Date/timePositionNaut miles runAvg speedWind from/ knotsBaromVisibWave heightAir tempDewpointWater temp
2015-Jan-26 00:33N 29°59' E 121°46'1 0.1
2015-Jan-25 08:24N 29°58' E 121°47'3 3.7
2015-Jan-25 07:33N 29°58' E 121°50'1211.9
2015-Jan-25 06:33N 29°56' E 122°04'1111.5
2015-Jan-25 05:33N 29°49' E 122°14'6 6.4
2015-Jan-25 04:33N 29°46' E 122°21'2 0.5
2015-Jan-25 01:19N 29°45' E 122°23'0 0.1
2015-Jan-25 00:31N 29°45' E 122°23'0 0.0
2015-Jan-24 20:19N 29°46' E 122°23'0 0.0
2015-Jan-24 17:08N 29°46' E 122°23'0 0.1
2015-Jan-24 14:13N 29°46' E 122°23'0 0.0
2015-Jan-24 13:19N 29°46' E 122°23'0 0.1
2015-Jan-24 10:13N 29°45' E 122°23'0 0.0
2015-Jan-24 08:32N 29°46' E 122°23'0 0.1
2015-Jan-24 06:13N 29°46' E 122°23'0 0.1
2015-Jan-24 03:31N 29°46' E 122°23'0 0.0
2015-Jan-24 01:31N 29°46' E 122°23'0 0.0
2015-Jan-23 23:16N 29°45' E 122°23'0 0.1
2015-Jan-23 19:31N 29°46' E 122°23'0 0.1
2015-Jan-23 16:25N 29°46' E 122°23'0 0.0
2015-Jan-23 14:25N 29°46' E 122°23'0 0.1
2015-Jan-23 10:13N 29°45' E 122°23'1 0.3
2015-Jan-23 08:33N 29°45' E 122°23'7 6.5
2015-Jan-23 07:33N 29°42' E 122°30'2611.4
2015-Jan-23 05:14N 29°16' E 122°35'  
2015-Jan-20 01:07N 22°42' E 119°53'711.8
2015-Jan-20 00:32N 22°36' E 119°49'  
Track history (hours):
 
Tides and Currents Weather Stations Pressure Air Temp Water Temp Dewpoint Dewpoint Depression Visibility Wind Speed Wind Dir Waves Ship Positions

Chemroad Wing

Last reported at 2015-Jan-26 00:33 UTC. Time now 2015-Jan-27 03:29 UTC.
Position N 29°59' E 121°46'.

Length 170 m; draft 10.9 m.

Type: Ship (hazmat cat B). MMSI: 357740000.

Date/timePositionNaut miles runAvg speedWind from/ knotsBaromVisibWave heightAir tempDewpointWater temp
2015-Jan-26 00:33N 29°59' E 121°46'1 0.1
2015-Jan-25 08:24N 29°58' E 121°47'3 3.7
2015-Jan-25 07:33N 29°58' E 121°50'1211.9
2015-Jan-25 06:33N 29°56' E 122°04'1111.5
2015-Jan-25 05:33N 29°49' E 122°14'6 6.4
2015-Jan-25 04:33N 29°46' E 122°21'2 0.5
2015-Jan-25 01:19N 29°45' E 122°23'0 0.1
2015-Jan-25 00:31N 29°45' E 122°23'0 0.0
2015-Jan-24 20:19N 29°46' E 122°23'0 0.0
2015-Jan-24 17:08N 29°46' E 122°23'0 0.1
2015-Jan-24 14:13N 29°46' E 122°23'0 0.0
2015-Jan-24 13:19N 29°46' E 122°23'0 0.1
2015-Jan-24 10:13N 29°45' E 122°23'0 0.0
2015-Jan-24 08:32N 29°46' E 122°23'0 0.1
2015-Jan-24 06:13N 29°46' E 122°23'0 0.1
2015-Jan-24 03:31N 29°46' E 122°23'0 0.0
2015-Jan-24 01:31N 29°46' E 122°23'0 0.0
2015-Jan-23 23:16N 29°45' E 122°23'0 0.1
2015-Jan-23 19:31N 29°46' E 122°23'0 0.1
2015-Jan-23 16:25N 29°46' E 122°23'0 0.0
2015-Jan-23 14:25N 29°46' E 122°23'0 0.1
2015-Jan-23 10:13N 29°45' E 122°23'1 0.3
2015-Jan-23 08:33N 29°45' E 122°23'7 6.5
2015-Jan-23 07:33N 29°42' E 122°30'2611.4
2015-Jan-23 05:14N 29°16' E 122°35'  
2015-Jan-20 01:07N 22°42' E 119°53'711.8
2015-Jan-20 00:32N 22°36' E 119°49'  

Dump ship's entire track history